logo
Search for airport 
image banner adimage banner adimage banner ad
image banner ad

FASA - Sandhurst

Located in Sani Pass, South Africa

ICAO - FASA, IATA -

Data provided by Airmate  

General information

Coordinates: S25°43'9" E23°47'24"
Elevation is 3592 feet MSL.
 
View others Airports in Kwazulu-Natal

Operational data

Special qualification required
Current time UTC:
Current local time:
Weather at : - ( 0 km )
METAR: PAJC 251657Z AUTO 24010G17KT 10SM -RA BKN021 OVC028 04/00 A2971 RMK AO2 SLP062 P0000 T00390000 $
View NOTAMs / SUP AIP / TFR affecting this airport [VIEW]
Communications frequencies: [VIEW]

Runways:

RWY identifierQFULength (ft)Width (ft)SurfaceLDA (ft)
10165°393749SAND
28345°393749SAND

Airport contact information

Address: Sani Pass South Africa

Satellite view of FASA